Airfield :
LOGIN :

Register | Disclaimer

   EN    FR    IT 

 










Legend :    VFR   Marginal VFR   IFR   Intensive IFR   Very Intensive IFR
Visi :
Ceiling :
>= 8 km
>= 3000ft
5 to 8 km
1000 to 3000 ft
1500m to 5 km
500 to 1000 ft
800 to 1500m
200 to 500 ft
< 800m
< 200 ft
Symbols :   Thunderstorms  Fog  Heavy snow  Heavy precipitations  Wind > 20 kt
SIGMETs :     Misc.  Thunderstorms  Icing  Turbulence  Mountain Waves  Volcanic Ashes






- Airport Elevation : 1830 ft


EBLB - Butgenbach Elsenborn

CURRENT METAR :
  • 190255Z AUTO 24013KT 7000 -RASN OVC006/// 01/01 Q1013 YLO

EXPIRED METARs :
  • 190246Z AUTO 25010KT 9999 -RASN OVC007/// 02/01 Q1013 GRN
  • 190225Z AUTO 24012KT 8000 -RASN OVC006/// 02/01 Q1013 YLO
  • 190208Z AUTO 24014G24KT 9999 -RASN OVC006/// 02/02 Q1013 YLO
  • 190155Z AUTO 24012KT 6000 RA OVC006/// 02/02 Q1013 YLO
  • 190125Z AUTO 22011KT 8000 -RA OVC006/// 02/02 Q1014 YLO
  • 190122Z AUTO 22011KT 9000 -RA OVC006/// 02/02 Q1014 YLO
  • 190055Z AUTO 22012G23KT 6000 RA OVC007/// 03/02 Q1014 GRN
  • 190025Z AUTO 22011KT 9999 -RA OVC008/// 03/02 Q1015 GRN

Expired Forecast.



MET'MAP, your aeronautical weather chart ! - Copyright ORBIFLY December 2007 - Disclaimer

ORBIFLY MET'MAP TEAM :

Programming & Development : Alexandra Zaïnal
Concept & original design : Baudouin d'Aumeries
Assistance for programming : Marc-Olivier Méhu
Technical & hardware support : Manuel Goepfert

Contact : metmap@orbifly.com




SOURCES & CREDITS :

   NOAA